Time;durP1;ratioP1;P1;durP2;ratioP2;P2;SDS_P1;SDS_P2;PMS_P1;PMS_P2;Temp;Humidity;BMP_temperature;BMP_pressure;BME280_temperature;BME280_humidity;BME280_pressure;Samples;Min_cycle;Max_cycle;Signal;HPM_P1;HPM_P2
2022/09/25 00:00:47;;;;;;;;;4.00;4.00;;;;;15.81;62.34;100813.84;4995981;28;45575;-58
2022/09/25 00:03:13;;;;;;;;;4.20;4.20;;;;;15.80;61.85;100814.94;4989377;28;46196;-58
2022/09/25 00:05:40;;;;;;;;;4.20;3.40;;;;;15.64;62.42;100791.63;5011908;28;45547;-58
2022/09/25 00:08:05;;;;;;;;;4.20;4.20;;;;;15.72;61.83;100817.00;5006507;28;45461;-58
2022/09/25 00:10:31;;;;;;;;;2.75;2.75;;;;;15.70;62.19;100835.75;5013520;28;45761;-58
2022/09/25 00:12:57;;;;;;;;;7.75;6.00;;;;;15.75;62.04;100826.75;5015040;28;46415;-58
2022/09/25 00:15:22;;;;;;;;;8.00;6.00;;;;;15.74;62.04;100836.09;5014486;28;45543;-58
2022/09/25 00:17:48;;;;;;;;;6.25;5.25;;;;;15.72;62.27;100827.22;5015581;28;45371;-58
2022/09/25 00:20:17;;;;;;;;;6.00;6.00;;;;;15.63;62.44;100817.63;5016070;28;45337;-59
2022/09/25 00:22:42;;;;;;;;;7.00;7.00;;;;;15.64;62.58;100824.84;5015328;28;46001;-58
2022/09/25 00:25:13;;;;;;;;;6.75;6.75;;;;;15.54;62.44;100823.50;5015700;28;45186;-58
2022/09/25 00:27:39;;;;;;;;;7.00;5.20;;;;;15.69;62.17;100836.00;5014532;28;45390;-58
2022/09/25 00:30:05;;;;;;;;;6.60;4.80;;;;;15.61;61.99;100817.00;5014587;28;45518;-58
2022/09/25 00:32:31;;;;;;;;;9.80;5.80;;;;;15.70;62.42;100837.69;5015506;28;46506;-58
2022/09/25 00:34:56;;;;;;;;;5.25;5.25;;;;;15.63;62.38;100832.28;5014144;28;45472;-57
2022/09/25 00:37:22;;;;;;;;;5.75;5.75;;;;;15.66;62.47;100823.50;5015983;28;45348;-56
2022/09/25 00:39:47;;;;;;;;;8.25;5.25;;;;;15.62;62.57;100832.53;5016253;28;45179;-58
2022/09/25 00:42:13;;;;;;;;;7.00;4.25;;;;;15.55;62.20;100832.66;5013899;28;45386;-57
2022/09/25 00:44:56;;;;;;;;;4.50;3.25;;;;;15.65;62.11;100827.38;5015442;28;45480;-60
2022/09/25 00:47:42;;;;;;;;;5.20;5.20;;;;;15.38;62.56;100802.16;5014272;28;45308;-58
2022/09/25 00:50:51;;;;;;;;;5.00;5.00;;;;;15.45;62.82;100822.22;5014740;28;45421;-59
2022/09/25 00:53:22;;;;;;;;;5.00;3.60;;;;;15.51;62.77;100818.47;4953724;28;46028;-58
2022/09/25 00:55:48;;;;;;;;;4.80;4.80;;;;;15.50;62.78;100819.56;4987735;28;45540;-56
2022/09/25 00:58:14;;;;;;;;;4.25;4.25;;;;;15.44;62.93;100821.34;5014987;28;45155;-57
2022/09/25 01:00:39;;;;;;;;;7.20;7.20;;;;;15.48;62.60;100816.19;4988201;28;45578;-57
2022/09/25 01:03:05;;;;;;;;;8.50;7.75;;;;;15.52;62.65;100822.94;4995345;28;45949;-59
2022/09/25 01:05:32;;;;;;;;;9.50;7.25;;;;;15.53;62.38;100816.31;4994284;28;45404;-57
2022/09/25 01:07:59;;;;;;;;;7.20;6.20;;;;;15.26;62.85;100791.94;4993988;28;45480;-56
2022/09/25 01:10:24;;;;;;;;;9.40;7.40;;;;;15.39;63.59;100824.03;4993861;28;45436;-57
2022/09/25 01:12:50;;;;;;;;;9.50;8.75;;;;;15.37;63.53;100817.06;4994870;28;46206;-58
2022/09/25 01:15:17;;;;;;;;;7.50;6.75;;;;;15.43;63.12;100818.88;4994012;28;45436;-57
2022/09/25 01:17:43;;;;;;;;;9.20;9.20;;;;;15.44;63.42;100824.13;4993795;28;45416;-58
2022/09/25 01:20:27;;;;;;;;;11.00;8.50;;;;;15.46;63.06;100821.13;4995540;28;45616;-58
2022/09/25 01:23:21;;;;;;;;;8.60;7.60;;;;;15.38;62.96;100827.03;4994783;28;45826;-57
2022/09/25 01:25:56;;;;;;;;;7.00;6.00;;;;;15.35;63.16;100833.88;5010395;28;45477;-57
2022/09/25 01:28:28;;;;;;;;;10.00;7.00;;;;;15.33;62.94;100822.25;4995032;28;45470;-57
2022/09/25 01:30:58;;;;;;;;;5.80;5.80;;;;;15.34;63.31;100826.69;4995401;28;45248;-58
2022/09/25 01:33:33;;;;;;;;;7.20;6.40;;;;;15.34;63.20;100832.22;4977279;28;46064;-56
2022/09/25 01:36:03;;;;;;;;;11.00;8.40;;;;;15.29;63.50;100819.13;4993782;28;45387;-58
2022/09/25 01:38:42;;;;;;;;;7.20;7.00;;;;;15.26;63.84;100825.13;4995020;28;45420;-57
2022/09/25 01:41:40;;;;;;;;;9.20;8.20;;;;;15.35;63.10;100825.59;4977454;28;45368;-57
2022/09/25 01:44:27;;;;;;;;;13.20;8.80;;;;;15.30;63.34;100822.72;4961191;28;46116;-58
2022/09/25 01:46:54;;;;;;;;;13.40;10.80;;;;;15.24;63.68;100816.22;4992452;28;45944;-57
2022/09/25 01:49:27;;;;;;;;;9.00;8.60;;;;;15.07;63.96;100802.31;4993945;28;45385;-57
2022/09/25 01:51:54;;;;;;;;;11.00;10.40;;;;;15.17;64.03;100819.09;4977198;28;45483;-57
2022/09/25 01:54:29;;;;;;;;;11.00;8.60;;;;;15.23;63.80;100814.56;4994766;28;46793;-56
2022/09/25 01:57:01;;;;;;;;;7.80;7.80;;;;;15.10;63.90;100807.34;5009858;28;45883;-58
2022/09/25 01:59:35;;;;;;;;;12.20;10.20;;;;;15.13;64.59;100815.16;4993497;28;45379;-57
2022/09/25 02:02:00;;;;;;;;;11.00;9.60;;;;;15.20;63.92;100812.25;4973749;28;46092;-57
2022/09/25 02:04:41;;;;;;;;;11.00;9.50;;;;;15.25;63.82;100822.59;4976967;28;46525;-56
2022/09/25 02:07:08;;;;;;;;;10.40;10.20;;;;;15.26;63.48;100822.34;4976947;28;45347;-57
2022/09/25 02:09:41;;;;;;;;;10.20;9.00;;;;;15.32;63.93;100826.91;4993531;28;45431;-57
2022/09/25 02:12:13;;;;;;;;;9.80;9.80;;;;;15.32;63.42;100824.16;4993181;28;45431;-57
2022/09/25 02:14:57;;;;;;;;;8.80;8.80;;;;;15.33;63.72;100830.53;4994743;28;45855;-58
2022/09/25 02:22:56;;;;;;;;;8.20;7.00;;;;;15.06;63.94;100791.47;4997555;28;45400;-57
2022/09/25 02:25:26;;;;;;;;;8.75;7.25;;;;;15.22;64.21;100818.41;4997958;28;45440;-58
2022/09/25 02:27:52;;;;;;;;;8.20;6.40;;;;;15.12;64.14;100827.31;4997472;28;45333;-58
2022/09/25 02:30:18;;;;;;;;;13.25;9.00;;;;;15.15;64.31;100826.81;4996880;28;45458;-57
2022/09/25 02:32:44;;;;;;;;;8.80;8.00;;;;;15.23;64.25;100828.38;4998022;28;45488;-57
2022/09/25 02:35:09;;;;;;;;;5.25;5.25;;;;;15.21;64.73;100832.47;4997609;28;45775;-56
2022/09/25 02:37:35;;;;;;;;;9.00;8.75;;;;;15.26;64.32;100818.75;4997821;28;45443;-56
2022/09/25 02:40:01;;;;;;;;;7.75;7.00;;;;;15.26;64.06;100816.81;4980120;28;45508;-57
2022/09/25 02:42:45;;;;;;;;;6.25;5.00;;;;;15.22;63.99;100823.09;4997891;28;45431;-58
2022/09/25 02:45:38;;;;;;;;;6.40;6.40;;;;;15.24;64.08;100830.06;4997484;28;47642;-57
2022/09/25 02:48:26;;;;;;;;;7.80;7.40;;;;;15.20;64.01;100826.06;4992571;28;45398;-57
2022/09/25 02:51:21;;;;;;;;;6.80;5.80;;;;;15.14;64.30;100830.66;4996679;28;45458;-57
2022/09/25 02:54:02;;;;;;;;;7.20;5.60;;;;;15.10;64.56;100814.81;4997542;28;45418;-57
2022/09/25 02:56:40;;;;;;;;;6.80;5.80;;;;;15.04;64.70;100820.19;4995822;28;45807;-58
2022/09/25 02:59:10;;;;;;;;;5.20;5.00;;;;;14.86;64.88;100806.50;4995520;28;45481;-57
2022/09/25 03:01:37;;;;;;;;;7.00;5.00;;;;;14.94;64.77;100831.00;4979926;28;45309;-58
2022/09/25 03:04:03;;;;;;;;;5.00;5.00;;;;;14.96;64.85;100837.16;4979761;28;45486;-56
2022/09/25 03:06:29;;;;;;;;;7.60;7.40;;;;;14.96;65.36;100841.81;4997315;28;45448;-57
2022/09/25 03:08:55;;;;;;;;;8.00;8.00;;;;;14.92;65.03;100838.69;4979540;28;45368;-58
2022/09/25 03:11:22;;;;;;;;;7.00;7.00;;;;;14.82;65.32;100827.38;4979477;28;45503;-57
2022/09/25 03:14:00;;;;;;;;;9.20;8.20;;;;;14.87;65.78;100833.03;4997350;28;45373;-58
2022/09/25 03:16:30;;;;;;;;;7.00;6.20;;;;;14.89;65.80;100850.25;4996732;28;46967;-57
2022/09/25 03:18:55;;;;;;;;;8.80;7.00;;;;;14.84;65.62;100845.41;4995607;28;45447;-58
2022/09/25 03:21:21;;;;;;;;;6.25;6.00;;;;;14.83;65.67;100831.84;4997078;28;45373;-58
2022/09/25 03:23:46;;;;;;;;;7.00;5.50;;;;;14.90;65.72;100843.63;4995801;28;45538;-59
2022/09/25 03:26:12;;;;;;;;;8.00;7.25;;;;;14.93;66.18;100851.44;4996694;28;46974;-59
2022/09/25 03:28:37;;;;;;;;;7.00;7.00;;;;;14.95;65.47;100848.44;4996912;28;45320;-58
2022/09/25 03:31:05;;;;;;;;;14.50;9.50;;;;;14.97;65.85;100857.31;4995864;28;45365;-58
2022/09/25 03:33:40;;;;;;;;;9.00;8.40;;;;;14.83;65.80;100846.50;4996903;28;45543;-57
2022/09/25 03:36:09;;;;;;;;;8.20;8.20;;;;;14.82;66.45;100850.34;4996672;28;46078;-56
2022/09/25 03:38:35;;;;;;;;;7.80;7.80;;;;;14.83;66.26;100865.00;4995350;28;45400;-57
2022/09/25 03:41:01;;;;;;;;;6.50;6.50;;;;;14.80;66.67;100865.47;4997150;28;45318;-56
2022/09/25 03:43:26;;;;;;;;;9.00;8.50;;;;;14.25;66.49;100767.94;4995555;28;45533;-57
2022/09/25 03:45:52;;;;;;;;;6.00;6.00;;;;;14.40;65.49;100789.59;4996823;28;46770;-57
2022/09/25 03:48:17;;;;;;;;;13.00;10.50;;;;;14.95;65.90;100867.78;4995130;28;45447;-55
2022/09/25 03:50:45;;;;;;;;;11.00;9.75;;;;;14.91;65.46;100865.47;4996839;28;45266;-56
2022/09/25 03:53:11;;;;;;;;;14.20;11.40;;;;;14.83;66.34;100868.59;4996917;28;45215;-57
2022/09/25 03:55:36;;;;;;;;;8.40;7.40;;;;;14.84;66.18;100870.28;4995087;28;45379;-55
2022/09/25 03:58:02;;;;;;;;;14.25;8.50;;;;;14.81;66.39;100870.75;4996630;28;45360;-58
2022/09/25 04:00:27;;;;;;;;;11.50;10.50;;;;;14.81;65.84;100869.91;4996228;28;45358;-57
2022/09/25 04:02:52;;;;;;;;;11.25;8.75;;;;;14.79;65.69;100872.06;4996813;28;45800;-57
2022/09/25 04:05:18;;;;;;;;;14.50;10.00;;;;;14.76;66.74;100868.72;4996531;28;45976;-58
2022/09/25 04:07:44;;;;;;;;;9.60;9.00;;;;;14.48;66.16;100831.50;4996091;28;45381;-57
2022/09/25 04:10:10;;;;;;;;;5.25;4.00;;;;;14.77;66.12;100867.63;4996379;28;45497;-58
2022/09/25 04:12:35;;;;;;;;;9.60;8.80;;;;;14.82;66.07;100872.44;4995923;28;45483;-57
2022/09/25 04:15:01;;;;;;;;;7.25;7.00;;;;;14.77;65.92;100873.16;4996073;28;45795;-57
2022/09/25 04:17:28;;;;;;;;;9.25;7.75;;;;;14.85;65.55;100860.94;4996431;28;45450;-57
2022/09/25 04:19:53;;;;;;;;;8.60;7.60;;;;;14.86;65.91;100868.13;4995832;28;45421;-58
2022/09/25 04:22:19;;;;;;;;;9.00;7.75;;;;;14.83;65.67;100862.25;4996524;28;45638;-57
2022/09/25 04:24:47;;;;;;;;;9.75;7.00;;;;;14.91;65.38;100867.41;4995648;28;46104;-56
2022/09/25 04:27:14;;;;;;;;;8.00;6.20;;;;;14.94;65.63;100872.44;4994380;28;45378;-57
2022/09/25 04:29:39;;;;;;;;;8.20;5.80;;;;;14.68;65.94;100846.91;4995700;28;45393;-57
2022/09/25 04:34:49;;;;;;;;;9.20;9.20;;;;;14.78;65.93;100868.47;4995343;28;45802;-57
2022/09/25 04:37:14;;;;;;;;;10.25;7.00;;;;;14.57;66.08;100840.28;4995617;28;45389;-57
2022/09/25 04:39:40;;;;;;;;;10.00;7.75;;;;;14.67;65.41;100858.22;4994277;28;45372;-57
2022/09/25 04:42:06;;;;;;;;;10.75;9.25;;;;;14.63;65.96;100858.66;4995255;28;45420;-57
2022/09/25 04:44:31;;;;;;;;;11.25;10.00;;;;;14.70;66.25;100877.91;4994187;28;46369;-56
2022/09/25 04:46:57;;;;;;;;;9.50;6.25;;;;;14.77;65.87;100873.16;4995148;28;45394;-56
2022/09/25 04:49:22;;;;;;;;;10.25;10.25;;;;;14.80;65.67;100880.13;4995566;28;45295;-57
2022/09/25 04:51:48;;;;;;;;;11.75;9.00;;;;;14.81;65.46;100878.19;4995477;28;45551;-57
2022/09/25 04:54:15;;;;;;;;;13.25;10.50;;;;;14.77;65.45;100877.84;4993817;28;45315;-54
2022/09/25 04:56:42;;;;;;;;;9.40;8.40;;;;;14.68;66.07;100876.47;4995500;28;45365;-56
2022/09/25 04:59:10;;;;;;;;;11.80;11.80;;;;;14.66;66.42;100887.75;4994972;28;45904;-56
2022/09/25 05:01:36;;;;;;;;;14.60;11.80;;;;;14.49;65.60;100863.56;4993892;28;45493;-59
2022/09/25 05:04:01;;;;;;;;;14.75;13.50;;;;;14.39;66.39;100867.94;4993679;28;46887;-61
2022/09/25 05:06:27;;;;;;;;;13.50;10.75;;;;;14.62;65.91;100890.13;4995263;28;45561;-58
2022/09/25 05:08:53;;;;;;;;;9.80;8.80;;;;;14.63;65.65;100897.34;4995222;28;45375;-58
2022/09/25 05:11:18;;;;;;;;;14.75;13.25;;;;;14.70;65.56;100901.94;4994364;28;45252;-58
2022/09/25 05:13:45;;;;;;;;;13.75;13.25;;;;;14.54;65.82;100884.09;4993766;28;46475;-57
2022/09/25 05:16:11;;;;;;;;;14.60;13.40;;;;;14.62;66.06;100901.19;4994079;28;45269;-56
2022/09/25 05:18:36;;;;;;;;;10.75;10.75;;;;;14.65;66.11;100902.63;4993994;28;45270;-58
2022/09/25 05:21:03;;;;;;;;;15.25;10.75;;;;;14.66;65.18;100898.78;4995266;28;45157;-57
2022/09/25 05:23:29;;;;;;;;;13.40;12.20;;;;;14.70;65.43;100905.53;4993867;28;46317;-56
2022/09/25 05:25:56;;;;;;;;;14.25;14.25;;;;;14.48;65.54;100863.81;4993643;28;45453;-57
2022/09/25 05:28:23;;;;;;;;;13.40;13.20;;;;;14.68;65.77;100901.34;4994857;28;45472;-56
2022/09/25 05:30:49;;;;;;;;;15.80;13.00;;;;;14.47;65.14;100867.66;4993960;28;45730;-57
2022/09/25 05:33:14;;;;;;;;;15.00;10.75;;;;;14.70;65.55;100915.75;4994497;28;46929;-55
2022/09/25 05:35:40;;;;;;;;;15.50;11.50;;;;;14.56;65.36;100904.06;4994784;28;45437;-57
2022/09/25 05:38:07;;;;;;;;;14.50;12.00;;;;;14.32;65.98;100871.69;4993479;28;45476;-56
2022/09/25 05:40:33;;;;;;;;;15.60;13.20;;;;;14.60;65.35;100908.03;4995062;28;45604;-57
2022/09/25 05:42:59;;;;;;;;;7.75;7.00;;;;;14.35;65.38;100887.75;4993621;28;45994;-57
2022/09/25 05:45:24;;;;;;;;;17.50;14.00;;;;;14.54;65.53;100912.56;4994310;28;45843;-58
2022/09/25 05:48:04;;;;;;;;;12.75;12.50;;;;;14.53;65.88;100912.81;4994939;28;45565;-59
2022/09/25 05:50:31;;;;;;;;;14.40;11.60;;;;;14.55;65.46;100913.41;4994947;28;45561;-58
2022/09/25 05:52:57;;;;;;;;;11.40;11.40;;;;;14.53;65.74;100918.31;4994524;28;45860;-57
2022/09/25 05:55:23;;;;;;;;;11.20;11.00;;;;;14.53;65.43;100916.41;4996063;28;45398;-59
2022/09/25 05:57:48;;;;;;;;;14.40;13.60;;;;;14.63;64.86;100922.19;4997323;28;45400;-55
2022/09/25 06:00:16;;;;;;;;;15.75;12.75;;;;;14.64;65.29;100923.06;4997792;28;45583;-58
2022/09/25 06:02:41;;;;;;;;;13.00;12.20;;;;;14.66;64.90;100931.94;4996794;28;46559;-58
2022/09/25 06:05:07;;;;;;;;;16.50;10.00;;;;;14.42;65.02;100904.25;4997945;28;45431;-58
2022/09/25 06:07:34;;;;;;;;;12.60;11.20;;;;;14.56;65.00;100935.28;4997986;28;45477;-55
2022/09/25 06:09:59;;;;;;;;;14.20;13.20;;;;;14.58;64.86;100924.81;4998369;28;45596;-57
2022/09/25 06:12:25;;;;;;;;;12.00;11.00;;;;;14.63;64.44;100926.91;4997233;28;45403;-58
2022/09/25 06:14:53;;;;;;;;;14.00;13.00;;;;;14.60;65.08;100943.94;4996935;28;45243;-57
2022/09/25 06:17:19;;;;;;;;;8.20;8.20;;;;;14.60;64.88;100943.94;4998108;28;45377;-58
2022/09/25 06:19:44;;;;;;;;;13.75;9.75;;;;;14.48;64.53;100941.94;4996797;28;45414;-57
2022/09/25 06:22:10;;;;;;;;;10.75;10.75;;;;;14.48;64.42;100946.66;4997791;28;46452;-58
2022/09/25 06:24:35;;;;;;;;;9.75;9.00;;;;;14.49;64.75;100954.72;4996047;28;45383;-58
2022/09/25 06:27:01;;;;;;;;;18.00;14.25;;;;;14.46;64.60;100949.63;4997830;28;46467;-56
2022/09/25 06:29:26;;;;;;;;;9.50;9.00;;;;;14.48;64.62;100958.53;4997665;28;45386;-57
2022/09/25 06:31:52;;;;;;;;;10.00;9.25;;;;;14.38;64.97;100952.72;4997426;28;45417;-56
2022/09/25 06:34:18;;;;;;;;;7.25;7.00;;;;;14.22;64.72;100937.63;4997729;28;45441;-56
2022/09/25 06:36:43;;;;;;;;;9.50;9.50;;;;;14.28;64.96;100946.91;4997029;28;45456;-56
2022/09/25 06:39:09;;;;;;;;;8.50;7.25;;;;;14.31;64.39;100955.56;4997914;28;45350;-57
2022/09/25 06:41:35;;;;;;;;;6.00;6.00;;;;;14.25;64.36;100953.72;4996862;28;46167;-57
2022/09/25 06:44:01;;;;;;;;;9.40;7.60;;;;;13.94;64.51;100937.09;4996130;28;45360;-58
2022/09/25 06:46:26;;;;;;;;;12.00;7.50;;;;;14.03;65.50;100958.91;4997600;28;45778;-58
2022/09/25 06:48:53;;;;;;;;;6.25;6.25;;;;;14.11;65.20;100955.81;4997136;28;45451;-59
2022/09/25 06:51:19;;;;;;;;;9.80;8.40;;;;;14.22;64.91;100956.97;4979478;28;47961;-59
2022/09/25 06:53:44;;;;;;;;;8.60;7.00;;;;;14.28;64.76;100958.78;4996838;28;45401;-58
2022/09/25 06:56:11;;;;;;;;;7.00;6.50;;;;;14.31;63.72;100955.56;4995948;28;45420;-56
2022/09/25 06:58:36;;;;;;;;;5.00;5.00;;;;;14.31;63.94;100947.28;4997439;28;45423;-59
2022/09/25 07:01:02;;;;;;;;;8.75;5.25;;;;;14.33;63.68;100952.56;4988473;28;46211;-57
2022/09/25 07:03:46;;;;;;;;;8.50;7.00;;;;;14.29;63.45;100951.38;4960006;28;45364;-54
2022/09/25 07:06:14;;;;;;;;;6.40;6.40;;;;;14.29;64.36;100954.13;4975901;28;45486;-56
2022/09/25 07:08:40;;;;;;;;;8.00;7.20;;;;;14.35;63.61;100961.47;4977784;28;45254;-57
2022/09/25 07:11:06;;;;;;;;;9.20;6.00;;;;;14.12;63.98;100938.19;4975771;28;48175;-57
2022/09/25 07:13:33;;;;;;;;;6.00;6.00;;;;;14.13;63.53;100937.09;4976864;28;45326;-58
2022/09/25 07:16:11;;;;;;;;;6.00;6.00;;;;;14.21;63.50;100955.28;4976001;28;45425;-56
2022/09/25 07:18:37;;;;;;;;;6.60;5.20;;;;;14.26;63.43;100960.94;4976296;28;45479;-57
2022/09/25 07:21:07;;;;;;;;;9.75;9.50;;;;;14.25;63.44;100958.41;4976814;28;46269;-58
2022/09/25 07:23:33;;;;;;;;;6.60;6.60;;;;;14.32;62.97;100957.28;4977181;28;45300;-57
2022/09/25 07:26:12;;;;;;;;;5.20;4.00;;;;;14.28;63.45;100966.22;4976941;28;45891;-56
2022/09/25 07:28:39;;;;;;;;;6.20;5.60;;;;;14.28;63.14;100957.94;4977640;28;45360;-56
2022/09/25 07:31:11;;;;;;;;;3.80;3.80;;;;;14.30;63.09;100958.56;4975184;28;47001;-56
2022/09/25 07:33:37;;;;;;;;;5.80;5.80;;;;;14.27;63.48;100961.78;4977163;28;45454;-57
2022/09/25 07:36:03;;;;;;;;;8.00;6.75;;;;;14.26;63.13;100968.38;4975413;28;45810;-57
2022/09/25 07:38:28;;;;;;;;;7.00;6.50;;;;;14.08;63.29;100932.28;4977230;28;45915;-54
2022/09/25 07:40:53;;;;;;;;;5.00;5.00;;;;;14.30;63.12;100967.69;4976754;28;45794;-58
2022/09/25 07:43:19;;;;;;;;;4.75;4.75;;;;;14.29;63.16;100967.94;4977029;28;45221;-57
2022/09/25 07:45:53;;;;;;;;;5.75;4.00;;;;;14.35;63.05;100981.63;4977043;28;45189;-56
2022/09/25 07:48:22;;;;;;;;;6.80;5.80;;;;;14.35;62.80;100973.34;4976730;28;45657;-59
2022/09/25 07:50:50;;;;;;;;;9.00;5.40;;;;;14.12;62.37;100945.59;4976426;28;46204;-58
2022/09/25 07:53:19;;;;;;;;;5.80;4.60;;;;;14.38;62.46;100985.84;4991164;28;45513;-52
2022/09/25 07:55:45;;;;;;;;;4.00;3.20;;;;;14.17;63.00;100960.41;4984674;28;45385;-57
2022/09/25 07:58:11;;;;;;;;;5.80;5.80;;;;;14.38;62.55;100994.16;5016525;28;45807;-58
2022/09/25 08:00:36;;;;;;;;;5.40;5.40;;;;;14.31;63.02;100994.22;4994164;28;47337;-58
2022/09/25 08:03:02;;;;;;;;;4.75;4.50;;;;;14.33;62.60;100992.09;4996208;28;45258;-59
2022/09/25 08:05:28;;;;;;;;;4.25;4.25;;;;;14.30;62.83;100970.44;4996448;28;45330;-59
2022/09/25 08:07:53;;;;;;;;;6.00;5.00;;;;;14.34;62.42;100984.63;4996293;28;45465;-60
2022/09/25 08:10:19;;;;;;;;;5.75;5.00;;;;;14.42;62.86;100987.09;4994679;28;46835;-60
2022/09/25 08:12:44;;;;;;;;;6.75;5.00;;;;;14.33;62.50;100964.47;4994237;28;45407;-59
2022/09/25 08:15:13;;;;;;;;;5.00;5.00;;;;;14.46;62.43;100987.47;4994525;28;45537;-58
2022/09/25 08:17:40;;;;;;;;;5.20;3.60;;;;;14.52;62.55;100986.53;4993984;28;45209;-58
2022/09/25 08:20:06;;;;;;;;;4.00;4.00;;;;;14.57;61.88;100992.19;4995691;28;46620;-58
2022/09/25 08:22:32;;;;;;;;;3.40;3.40;;;;;14.57;61.71;100978.38;5010710;28;45430;-60
2022/09/25 08:25:01;;;;;;;;;6.00;4.40;;;;;14.49;61.62;100963.00;4994522;28;45336;-60
2022/09/25 08:27:26;;;;;;;;;4.00;3.00;;;;;14.64;61.58;100989.34;4995892;28;45463;-58
2022/09/25 08:29:52;;;;;;;;;6.75;4.00;;;;;14.69;61.78;100994.16;4995915;28;45991;-57
2022/09/25 08:32:17;;;;;;;;;5.50;4.50;;;;;14.70;60.69;100995.84;4977948;28;45399;-55
2022/09/25 08:34:43;;;;;;;;;3.75;3.75;;;;;14.70;60.93;100999.47;4996104;28;45338;-59
2022/09/25 08:37:09;;;;;;;;;7.00;4.00;;;;;14.56;60.85;100962.88;4995987;28;45512;-56
2022/09/25 08:39:34;;;;;;;;;4.60;3.00;;;;;14.64;60.76;100958.97;4951419;28;45892;-59
2022/09/25 08:42:00;;;;;;;;;3.25;3.25;;;;;14.88;60.59;100997.75;4990669;28;45446;-55
2022/09/25 08:44:36;;;;;;;;;3.60;2.60;;;;;14.91;60.15;101000.88;4991559;28;45778;-59
2022/09/25 08:50:15;;;;;;;;;4.00;2.20;;;;;15.03;59.45;100998.19;4991454;28;45499;-58
2022/09/25 08:52:42;;;;;;;;;3.00;3.00;;;;;15.04;58.52;100991.56;4953826;28;45446;-60
2022/09/25 08:58:23;;;;;;;;;1.00;1.00;;;;;14.81;58.96;100956.41;4977298;28;45372;-60
2022/09/25 09:00:51;;;;;;;;;2.80;2.60;;;;;15.06;58.21;100982.19;4991089;28;46224;-59
2022/09/25 09:03:17;;;;;;;;;2.80;2.80;;;;;15.10;58.68;100975.13;4997910;28;45435;-60
2022/09/25 09:05:44;;;;;;;;;2.60;2.00;;;;;15.20;58.14;100985.59;5009538;28;45545;-60
2022/09/25 09:08:11;;;;;;;;;2.80;1.60;;;;;15.25;58.08;100989.34;5011228;28;45461;-60
2022/09/25 09:10:41;;;;;;;;;2.20;2.00;;;;;15.28;57.56;100986.09;4996475;28;46524;-60
2022/09/25 09:13:31;;;;;;;;;2.80;2.00;;;;;15.36;57.24;100992.38;4955671;28;45515;-57
2022/09/25 09:16:05;;;;;;;;;2.80;2.60;;;;;15.17;56.51;100971.16;5001829;28;45439;-59
2022/09/25 09:18:35;;;;;;;;;4.00;2.00;;;;;15.27;56.82;100992.69;5009706;28;45489;-60
2022/09/25 09:21:45;;;;;;;;;6.20;3.40;;;;;15.38;56.76;100981.91;4993325;28;46355;-61
2022/09/25 09:24:26;;;;;;;;;1.80;1.20;;;;;15.41;56.24;100993.31;5003282;28;45995;-60
2022/09/25 09:27:11;;;;;;;;;2.00;1.20;;;;;15.36;55.70;100981.31;4991052;28;46032;-59
2022/09/25 09:29:55;;;;;;;;;4.60;2.20;;;;;15.54;55.62;101000.53;5012325;28;45839;-58
2022/09/25 09:32:41;;;;;;;;;1.00;1.00;;;;;15.37;55.08;100958.94;5014335;28;47226;-59
2022/09/25 09:35:29;;;;;;;;;4.00;1.40;;;;;15.55;55.13;100985.66;5005185;28;45833;-59
2022/09/25 09:38:15;;;;;;;;;1.00;1.00;;;;;15.73;53.54;101000.44;4996459;28;45374;-59
2022/09/25 09:40:57;;;;;;;;;2.00;2.00;;;;;15.75;53.39;100981.69;4970373;28;45420;-61
2022/09/25 09:43:36;;;;;;;;;1.80;1.80;;;;;15.93;52.40;100990.97;5010153;28;45511;-59
2022/09/25 09:46:40;;;;;;;;;1.40;1.40;;;;;16.01;52.14;100981.47;4996819;28;45534;-58
2022/09/25 09:49:23;;;;;;;;;0.00;0.00;;;;;15.97;52.05;100957.00;4902106;28;45461;-59
2022/09/25 09:51:54;;;;;;;;;4.00;2.60;;;;;16.14;51.42;100967.34;4990443;28;45399;-58
2022/09/25 09:54:34;;;;;;;;;1.00;1.00;;;;;16.34;50.09;100993.78;5009967;28;46573;-61
2022/09/25 09:57:00;;;;;;;;;0.60;0.00;;;;;16.17;49.12;100949.41;5012317;28;45528;-59
2022/09/25 09:59:28;;;;;;;;;2.75;1.00;;;;;16.51;49.97;100988.31;5013966;28;45513;-59
2022/09/25 10:02:02;;;;;;;;;1.20;1.00;;;;;16.62;49.69;100990.22;4980592;28;45564;-59
2022/09/25 10:04:35;;;;;;;;;3.80;1.00;;;;;16.73;49.02;100985.72;5000251;28;46264;-59
2022/09/25 10:07:07;;;;;;;;;2.00;2.00;;;;;16.76;47.86;100993.53;4995617;28;45857;-59
2022/09/25 10:09:32;;;;;;;;;1.00;1.00;;;;;16.82;47.58;100991.72;4996236;28;45529;-59
2022/09/25 10:12:29;;;;;;;;;1.00;0.00;;;;;16.85;46.85;100982.06;5010212;28;45577;-59
2022/09/25 10:14:55;;;;;;;;;2.80;2.40;;;;;16.89;46.13;100963.81;5005989;28;47696;-60
2022/09/25 10:17:22;;;;;;;;;1.80;1.80;;;;;16.85;45.93;100949.63;5010725;28;45761;-60
2022/09/25 10:19:56;;;;;;;;;1.00;0.60;;;;;17.03;46.02;100967.97;5013609;28;45346;-61
2022/09/25 10:22:32;;;;;;;;;0.60;0.60;;;;;17.14;45.98;100974.53;5012303;28;45638;-60
2022/09/25 10:25:02;;;;;;;;;1.00;1.00;;;;;17.24;45.69;100960.00;4994938;28;45532;-61
2022/09/25 10:27:30;;;;;;;;;1.00;1.00;;;;;17.39;45.94;100973.31;4992928;28;45538;-60
2022/09/25 10:30:10;;;;;;;;;1.40;1.40;;;;;17.50;45.72;100965.97;4997659;28;45564;-61
2022/09/25 10:32:43;;;;;;;;;2.20;1.00;;;;;17.55;45.37;100962.47;5013538;28;45466;-58
2022/09/25 10:35:16;;;;;;;;;1.00;1.00;;;;;17.31;45.63;100908.00;5008125;28;46346;-59
2022/09/25 10:37:42;;;;;;;;;2.40;2.40;;;;;17.54;45.35;100927.47;5009764;28;45773;-59
2022/09/25 10:40:33;;;;;;;;;1.25;1.00;;;;;17.74;45.68;100952.78;4993859;28;45397;-61
2022/09/25 10:43:19;;;;;;;;;1.00;1.00;;;;;17.90;45.07;100955.75;4991835;28;45473;-60
2022/09/25 10:45:48;;;;;;;;;1.00;0.80;;;;;17.92;43.04;100949.97;4996501;28;46261;-61
2022/09/25 10:51:17;;;;;;;;;0.20;0.00;;;;;18.11;43.82;100956.91;4978141;28;45387;-62
2022/09/25 10:54:09;;;;;;;;;2.75;1.75;;;;;18.21;43.01;100955.34;5009127;28;45414;-60
2022/09/25 10:56:37;;;;;;;;;2.40;1.00;;;;;18.20;43.04;100923.94;5000301;28;45409;-59
2022/09/25 10:59:17;;;;;;;;;0.20;0.20;;;;;18.33;41.43;100933.00;5000134;28;45760;-61
2022/09/25 11:01:43;;;;;;;;;1.80;1.80;;;;;18.52;42.33;100950.19;4994842;28;45801;-63
2022/09/25 11:04:30;;;;;;;;;3.25;1.50;;;;;18.57;41.98;100947.44;4975517;28;45449;-60
2022/09/25 11:07:03;;;;;;;;;1.20;1.20;;;;;18.70;42.36;100949.78;5010829;28;47456;-60
2022/09/25 11:09:31;;;;;;;;;2.80;2.20;;;;;18.78;42.44;100951.28;4994996;28;45454;-62
2022/09/25 11:12:35;;;;;;;;;1.00;1.00;;;;;18.90;40.76;100958.63;4990353;28;45436;-61
2022/09/25 11:15:04;;;;;;;;;1.00;1.00;;;;;18.96;40.88;100952.84;4967592;28;45474;-62
2022/09/25 11:17:36;;;;;;;;;0.20;0.20;;;;;19.09;40.76;100953.53;4948214;28;45563;-64
2022/09/25 11:20:28;;;;;;;;;2.00;2.00;;;;;19.20;39.77;100958.09;4990387;28;45409;-61
2022/09/25 11:23:15;;;;;;;;;1.60;1.60;;;;;19.18;40.71;100962.25;5011591;28;45730;-59
2022/09/25 11:25:42;;;;;;;;;3.00;2.00;;;;;19.32;41.24;100963.47;5007606;28;45447;-60
2022/09/25 11:28:29;;;;;;;;;1.80;0.60;;;;;19.41;40.61;100961.03;5001403;28;46622;-60
2022/09/25 11:31:03;;;;;;;;;3.20;1.00;;;;;19.48;40.31;100967.22;5011108;28;45482;-55
2022/09/25 11:33:31;;;;;;;;;2.80;1.60;;;;;19.64;40.17;100967.34;5011982;28;45611;-55
2022/09/25 11:36:05;;;;;;;;;1.00;1.00;;;;;19.75;39.69;100971.84;4996939;28;45540;-57
2022/09/25 11:41:55;;;;;;;;;1.00;0.40;;;;;19.96;39.50;100960.88;5000060;28;47291;-60
2022/09/25 11:44:43;;;;;;;;;0.60;0.60;;;;;19.87;39.73;100931.84;4978501;28;45595;-55
2022/09/25 11:47:16;;;;;;;;;3.20;3.20;;;;;20.17;39.86;100953.47;5001338;28;45568;-57
2022/09/25 11:49:42;;;;;;;;;2.20;2.20;;;;;20.32;38.51;100951.84;4993475;28;46680;-59
2022/09/25 11:52:36;;;;;;;;;0.25;0.25;;;;;20.48;39.42;100951.91;5008280;28;45437;-59
2022/09/25 11:55:33;;;;;;;;;2.40;0.60;;;;;20.66;38.89;100953.34;4981025;28;45870;-59
2022/09/25 11:58:32;;;;;;;;;1.80;1.80;;;;;20.75;38.32;100959.22;5010393;28;45558;-60